sensor_id;sensor_type;location;lat;lon;timestamp;P1;durP1;ratioP1;P2;durP2;ratioP2
60867;SDS011;46702;48.370;10.794;2023-08-21T00:01:17;7.85;;;5.88;;
60867;SDS011;46702;48.370;10.794;2023-08-21T00:03:43;8.30;;;5.72;;
60867;SDS011;46702;48.370;10.794;2023-08-21T00:06:09;7.45;;;5.78;;
60867;SDS011;46702;48.370;10.794;2023-08-21T00:08:35;8.05;;;5.47;;
60867;SDS011;46702;48.370;10.794;2023-08-21T00:11:00;8.05;;;5.88;;
60867;SDS011;46702;48.370;10.794;2023-08-21T00:13:26;6.25;;;5.25;;
60867;SDS011;46702;48.370;10.794;2023-08-21T00:15:52;10.48;;;6.35;;
60867;SDS011;46702;48.370;10.794;2023-08-21T00:18:19;7.82;;;5.97;;
60867;SDS011;46702;48.370;10.794;2023-08-21T00:20:44;7.95;;;5.60;;
60867;SDS011;46702;48.370;10.794;2023-08-21T00:23:10;6.75;;;5.22;;
60867;SDS011;46702;48.370;10.794;2023-08-21T00:25:36;9.82;;;6.18;;
60867;SDS011;46702;48.370;10.794;2023-08-21T00:28:01;7.32;;;6.22;;
60867;SDS011;46702;48.370;10.794;2023-08-21T00:30:27;7.25;;;5.85;;
60867;SDS011;46702;48.370;10.794;2023-08-21T00:32:53;5.47;;;4.43;;
60867;SDS011;46702;48.370;10.794;2023-08-21T00:35:18;5.40;;;4.80;;
60867;SDS011;46702;48.370;10.794;2023-08-21T00:37:44;6.50;;;5.00;;
60867;SDS011;46702;48.370;10.794;2023-08-21T00:40:09;5.80;;;4.97;;
60867;SDS011;46702;48.370;10.794;2023-08-21T00:42:35;5.80;;;5.20;;
60867;SDS011;46702;48.370;10.794;2023-08-21T00:45:01;8.05;;;6.43;;
60867;SDS011;46702;48.370;10.794;2023-08-21T00:47:28;8.75;;;6.03;;
60867;SDS011;46702;48.370;10.794;2023-08-21T00:49:53;6.45;;;5.53;;
60867;SDS011;46702;48.370;10.794;2023-08-21T00:52:20;7.32;;;6.03;;
60867;SDS011;46702;48.370;10.794;2023-08-21T00:54:45;7.28;;;6.15;;
60867;SDS011;46702;48.370;10.794;2023-08-21T00:57:11;7.03;;;6.32;;
60867;SDS011;46702;48.370;10.794;2023-08-21T00:59:38;7.30;;;5.95;;
60867;SDS011;46702;48.370;10.794;2023-08-21T01:02:04;8.25;;;5.47;;
60867;SDS011;46702;48.370;10.794;2023-08-21T01:04:29;8.60;;;5.30;;
60867;SDS011;46702;48.370;10.794;2023-08-21T01:06:56;5.65;;;4.25;;
60867;SDS011;46702;48.370;10.794;2023-08-21T01:10:25;6.60;;;4.53;;
60867;SDS011;46702;48.370;10.794;2023-08-21T01:12:25;6.53;;;5.60;;
60867;SDS011;46702;48.370;10.794;2023-08-21T01:15:04;7.05;;;5.32;;
60867;SDS011;46702;48.370;10.794;2023-08-21T01:19:59;7.38;;;5.97;;
60867;SDS011;46702;48.370;10.794;2023-08-21T01:22:26;8.45;;;5.78;;
60867;SDS011;46702;48.370;10.794;2023-08-21T01:24:53;9.10;;;5.88;;
60867;SDS011;46702;48.370;10.794;2023-08-21T01:27:19;7.03;;;6.22;;
60867;SDS011;46702;48.370;10.794;2023-08-21T01:29:46;12.00;;;8.82;;
60867;SDS011;46702;48.370;10.794;2023-08-21T01:34:40;8.98;;;6.10;;
60867;SDS011;46702;48.370;10.794;2023-08-21T01:37:08;7.00;;;6.33;;
60867;SDS011;46702;48.370;10.794;2023-08-21T01:39:34;6.95;;;6.05;;
60867;SDS011;46702;48.370;10.794;2023-08-21T01:41:59;8.93;;;5.43;;
60867;SDS011;46702;48.370;10.794;2023-08-21T01:44:25;6.78;;;5.38;;
60867;SDS011;46702;48.370;10.794;2023-08-21T01:46:51;6.00;;;4.85;;
60867;SDS011;46702;48.370;10.794;2023-08-21T01:49:17;6.32;;;5.30;;
60867;SDS011;46702;48.370;10.794;2023-08-21T01:51:44;5.68;;;4.97;;
60867;SDS011;46702;48.370;10.794;2023-08-21T01:54:10;6.38;;;5.75;;
60867;SDS011;46702;48.370;10.794;2023-08-21T01:56:36;6.80;;;5.53;;
60867;SDS011;46702;48.370;10.794;2023-08-21T01:59:02;7.63;;;5.53;;
60867;SDS011;46702;48.370;10.794;2023-08-21T02:01:29;6.68;;;5.97;;
60867;SDS011;46702;48.370;10.794;2023-08-21T02:03:54;7.75;;;5.95;;
60867;SDS011;46702;48.370;10.794;2023-08-21T02:06:20;6.82;;;5.75;;
60867;SDS011;46702;48.370;10.794;2023-08-21T02:08:45;8.65;;;6.45;;
60867;SDS011;46702;48.370;10.794;2023-08-21T02:11:11;7.78;;;6.15;;
60867;SDS011;46702;48.370;10.794;2023-08-21T02:13:37;8.60;;;6.45;;
60867;SDS011;46702;48.370;10.794;2023-08-21T02:16:02;8.15;;;6.18;;
60867;SDS011;46702;48.370;10.794;2023-08-21T02:18:28;6.95;;;5.82;;
60867;SDS011;46702;48.370;10.794;2023-08-21T02:20:54;6.32;;;4.72;;
60867;SDS011;46702;48.370;10.794;2023-08-21T02:23:19;6.80;;;5.22;;
60867;SDS011;46702;48.370;10.794;2023-08-21T02:25:45;7.47;;;5.55;;
60867;SDS011;46702;48.370;10.794;2023-08-21T02:28:11;8.23;;;6.03;;
60867;SDS011;46702;48.370;10.794;2023-08-21T02:30:39;6.63;;;5.78;;
60867;SDS011;46702;48.370;10.794;2023-08-21T02:33:06;8.85;;;5.95;;
60867;SDS011;46702;48.370;10.794;2023-08-21T02:35:31;8.80;;;5.72;;
60867;SDS011;46702;48.370;10.794;2023-08-21T02:37:57;6.20;;;5.60;;
60867;SDS011;46702;48.370;10.794;2023-08-21T02:40:22;7.70;;;6.07;;
60867;SDS011;46702;48.370;10.794;2023-08-21T02:42:48;7.72;;;6.25;;
60867;SDS011;46702;48.370;10.794;2023-08-21T02:45:13;8.73;;;6.65;;
60867;SDS011;46702;48.370;10.794;2023-08-21T02:47:39;8.05;;;6.63;;
60867;SDS011;46702;48.370;10.794;2023-08-21T02:50:06;7.35;;;6.63;;
60867;SDS011;46702;48.370;10.794;2023-08-21T02:52:33;9.95;;;6.47;;
60867;SDS011;46702;48.370;10.794;2023-08-21T02:54:59;7.13;;;6.43;;
60867;SDS011;46702;48.370;10.794;2023-08-21T02:57:25;7.95;;;5.90;;
60867;SDS011;46702;48.370;10.794;2023-08-21T02:59:51;8.88;;;6.13;;
60867;SDS011;46702;48.370;10.794;2023-08-21T03:02:17;7.68;;;6.03;;
60867;SDS011;46702;48.370;10.794;2023-08-21T03:04:43;6.70;;;6.05;;
60867;SDS011;46702;48.370;10.794;2023-08-21T03:07:09;6.28;;;5.68;;
60867;SDS011;46702;48.370;10.794;2023-08-21T03:09:35;9.88;;;6.47;;
60867;SDS011;46702;48.370;10.794;2023-08-21T03:12:02;6.57;;;5.68;;
60867;SDS011;46702;48.370;10.794;2023-08-21T03:14:28;6.68;;;5.43;;
60867;SDS011;46702;48.370;10.794;2023-08-21T03:16:53;8.98;;;5.32;;
60867;SDS011;46702;48.370;10.794;2023-08-21T03:19:19;6.22;;;5.60;;
60867;SDS011;46702;48.370;10.794;2023-08-21T03:21:44;7.60;;;5.78;;
60867;SDS011;46702;48.370;10.794;2023-08-21T03:24:10;7.20;;;5.45;;
60867;SDS011;46702;48.370;10.794;2023-08-21T03:26:36;6.78;;;5.57;;
60867;SDS011;46702;48.370;10.794;2023-08-21T03:29:01;8.05;;;5.93;;
60867;SDS011;46702;48.370;10.794;2023-08-21T03:31:27;5.78;;;5.18;;
60867;SDS011;46702;48.370;10.794;2023-08-21T03:33:53;6.63;;;5.40;;
60867;SDS011;46702;48.370;10.794;2023-08-21T03:36:18;7.78;;;5.90;;
60867;SDS011;46702;48.370;10.794;2023-08-21T03:38:44;7.82;;;5.50;;
60867;SDS011;46702;48.370;10.794;2023-08-21T03:41:10;7.07;;;5.43;;
60867;SDS011;46702;48.370;10.794;2023-08-21T03:43:36;6.75;;;5.20;;
60867;SDS011;46702;48.370;10.794;2023-08-21T03:46:02;6.60;;;5.15;;
60867;SDS011;46702;48.370;10.794;2023-08-21T03:48:28;5.78;;;4.65;;
60867;SDS011;46702;48.370;10.794;2023-08-21T03:50:53;5.80;;;4.57;;
60867;SDS011;46702;48.370;10.794;2023-08-21T03:53:19;6.88;;;4.68;;
60867;SDS011;46702;48.370;10.794;2023-08-21T03:55:44;6.00;;;4.95;;
60867;SDS011;46702;48.370;10.794;2023-08-21T03:58:10;7.10;;;5.38;;
60867;SDS011;46702;48.370;10.794;2023-08-21T04:00:36;8.20;;;6.38;;
60867;SDS011;46702;48.370;10.794;2023-08-21T04:03:01;6.20;;;5.60;;
60867;SDS011;46702;48.370;10.794;2023-08-21T04:05:27;8.80;;;5.95;;
60867;SDS011;46702;48.370;10.794;2023-08-21T04:07:52;9.60;;;6.75;;
60867;SDS011;46702;48.370;10.794;2023-08-21T04:10:18;9.15;;;6.60;;
60867;SDS011;46702;48.370;10.794;2023-08-21T04:12:44;9.55;;;6.38;;
60867;SDS011;46702;48.370;10.794;2023-08-21T04:15:09;8.55;;;6.38;;
60867;SDS011;46702;48.370;10.794;2023-08-21T04:17:35;9.52;;;7.10;;
60867;SDS011;46702;48.370;10.794;2023-08-21T04:20:01;9.65;;;6.90;;
60867;SDS011;46702;48.370;10.794;2023-08-21T04:22:26;7.30;;;6.47;;
60867;SDS011;46702;48.370;10.794;2023-08-21T04:24:52;9.25;;;5.97;;
60867;SDS011;46702;48.370;10.794;2023-08-21T04:27:17;11.20;;;6.60;;
60867;SDS011;46702;48.370;10.794;2023-08-21T04:29:43;8.15;;;6.28;;
60867;SDS011;46702;48.370;10.794;2023-08-21T04:32:08;9.68;;;6.43;;
60867;SDS011;46702;48.370;10.794;2023-08-21T04:34:34;11.32;;;6.65;;
60867;SDS011;46702;48.370;10.794;2023-08-21T04:37:00;8.48;;;6.00;;
60867;SDS011;46702;48.370;10.794;2023-08-21T04:39:26;7.88;;;6.13;;
60867;SDS011;46702;48.370;10.794;2023-08-21T04:41:51;9.90;;;6.00;;
60867;SDS011;46702;48.370;10.794;2023-08-21T04:44:17;7.90;;;6.63;;
60867;SDS011;46702;48.370;10.794;2023-08-21T04:46:43;10.98;;;6.68;;
60867;SDS011;46702;48.370;10.794;2023-08-21T04:49:12;7.22;;;5.85;;
60867;SDS011;46702;48.370;10.794;2023-08-21T04:51:38;7.13;;;6.22;;
60867;SDS011;46702;48.370;10.794;2023-08-21T04:54:03;10.27;;;6.68;;
60867;SDS011;46702;48.370;10.794;2023-08-21T04:56:29;9.02;;;6.05;;
60867;SDS011;46702;48.370;10.794;2023-08-21T04:58:55;11.27;;;6.38;;
60867;SDS011;46702;48.370;10.794;2023-08-21T05:01:20;10.02;;;6.80;;
60867;SDS011;46702;48.370;10.794;2023-08-21T05:03:46;13.02;;;6.90;;
60867;SDS011;46702;48.370;10.794;2023-08-21T05:06:11;17.13;;;7.93;;
60867;SDS011;46702;48.370;10.794;2023-08-21T05:08:37;15.48;;;7.47;;
60867;SDS011;46702;48.370;10.794;2023-08-21T05:11:03;12.75;;;6.65;;
60867;SDS011;46702;48.370;10.794;2023-08-21T05:13:28;8.30;;;6.72;;
60867;SDS011;46702;48.370;10.794;2023-08-21T05:15:57;8.35;;;6.20;;
60867;SDS011;46702;48.370;10.794;2023-08-21T05:18:23;8.90;;;6.03;;
60867;SDS011;46702;48.370;10.794;2023-08-21T05:20:50;8.77;;;6.60;;
60867;SDS011;46702;48.370;10.794;2023-08-21T05:23:18;9.98;;;6.43;;
60867;SDS011;46702;48.370;10.794;2023-08-21T05:25:45;7.78;;;6.65;;
60867;SDS011;46702;48.370;10.794;2023-08-21T05:28:12;8.07;;;6.28;;
60867;SDS011;46702;48.370;10.794;2023-08-21T05:30:37;7.70;;;6.90;;
60867;SDS011;46702;48.370;10.794;2023-08-21T05:33:03;8.38;;;7.03;;
60867;SDS011;46702;48.370;10.794;2023-08-21T05:35:32;8.63;;;7.10;;
60867;SDS011;46702;48.370;10.794;2023-08-21T05:37:58;9.75;;;6.50;;
60867;SDS011;46702;48.370;10.794;2023-08-21T05:40:24;12.07;;;6.88;;
60867;SDS011;46702;48.370;10.794;2023-08-21T05:42:49;8.07;;;7.13;;
60867;SDS011;46702;48.370;10.794;2023-08-21T05:45:15;12.77;;;7.85;;
60867;SDS011;46702;48.370;10.794;2023-08-21T05:47:41;10.90;;;6.97;;
60867;SDS011;46702;48.370;10.794;2023-08-21T05:50:06;8.90;;;7.15;;
60867;SDS011;46702;48.370;10.794;2023-08-21T05:52:32;9.75;;;7.03;;
60867;SDS011;46702;48.370;10.794;2023-08-21T05:54:58;9.02;;;7.40;;
60867;SDS011;46702;48.370;10.794;2023-08-21T05:57:23;11.43;;;7.88;;
60867;SDS011;46702;48.370;10.794;2023-08-21T05:59:49;9.00;;;7.28;;
60867;SDS011;46702;48.370;10.794;2023-08-21T06:02:14;9.80;;;7.53;;
60867;SDS011;46702;48.370;10.794;2023-08-21T06:04:40;11.77;;;8.13;;
60867;SDS011;46702;48.370;10.794;2023-08-21T06:07:06;13.90;;;8.93;;
60867;SDS011;46702;48.370;10.794;2023-08-21T06:09:32;11.25;;;7.90;;
60867;SDS011;46702;48.370;10.794;2023-08-21T06:11:59;11.45;;;8.25;;
60867;SDS011;46702;48.370;10.794;2023-08-21T06:14:28;11.32;;;8.88;;
60867;SDS011;46702;48.370;10.794;2023-08-21T06:16:57;11.98;;;7.45;;
60867;SDS011;46702;48.370;10.794;2023-08-21T06:19:27;10.10;;;7.88;;
60867;SDS011;46702;48.370;10.794;2023-08-21T06:21:53;11.18;;;8.35;;
60867;SDS011;46702;48.370;10.794;2023-08-21T06:24:19;11.85;;;8.32;;
60867;SDS011;46702;48.370;10.794;2023-08-21T06:26:45;17.02;;;8.40;;
60867;SDS011;46702;48.370;10.794;2023-08-21T06:29:11;14.52;;;8.68;;
60867;SDS011;46702;48.370;10.794;2023-08-21T06:31:36;13.88;;;8.27;;
60867;SDS011;46702;48.370;10.794;2023-08-21T06:34:02;13.75;;;8.55;;
60867;SDS011;46702;48.370;10.794;2023-08-21T06:36:27;10.77;;;8.88;;
60867;SDS011;46702;48.370;10.794;2023-08-21T06:38:53;13.18;;;9.10;;
60867;SDS011;46702;48.370;10.794;2023-08-21T06:41:20;9.32;;;7.68;;
60867;SDS011;46702;48.370;10.794;2023-08-21T06:43:45;10.18;;;8.32;;
60867;SDS011;46702;48.370;10.794;2023-08-21T06:46:11;14.02;;;8.43;;
60867;SDS011;46702;48.370;10.794;2023-08-21T06:48:37;13.10;;;8.27;;
60867;SDS011;46702;48.370;10.794;2023-08-21T06:51:07;12.57;;;8.65;;
60867;SDS011;46702;48.370;10.794;2023-08-21T06:53:33;11.02;;;8.15;;
60867;SDS011;46702;48.370;10.794;2023-08-21T06:55:58;10.52;;;8.63;;
60867;SDS011;46702;48.370;10.794;2023-08-21T06:58:24;10.60;;;8.02;;
60867;SDS011;46702;48.370;10.794;2023-08-21T07:00:50;9.75;;;8.60;;
60867;SDS011;46702;48.370;10.794;2023-08-21T07:03:15;12.00;;;8.18;;
60867;SDS011;46702;48.370;10.794;2023-08-21T07:05:41;10.70;;;8.25;;
60867;SDS011;46702;48.370;10.794;2023-08-21T07:08:11;8.52;;;7.40;;
60867;SDS011;46702;48.370;10.794;2023-08-21T07:10:37;10.63;;;8.05;;
60867;SDS011;46702;48.370;10.794;2023-08-21T07:13:03;9.63;;;7.90;;
60867;SDS011;46702;48.370;10.794;2023-08-21T07:15:29;10.15;;;8.00;;
60867;SDS011;46702;48.370;10.794;2023-08-21T07:17:55;11.13;;;8.38;;
60867;SDS011;46702;48.370;10.794;2023-08-21T07:20:21;8.48;;;7.57;;
60867;SDS011;46702;48.370;10.794;2023-08-21T07:22:47;8.43;;;7.63;;
60867;SDS011;46702;48.370;10.794;2023-08-21T07:25:12;10.15;;;7.90;;
60867;SDS011;46702;48.370;10.794;2023-08-21T07:27:38;10.90;;;8.20;;
60867;SDS011;46702;48.370;10.794;2023-08-21T07:30:05;14.10;;;8.52;;
60867;SDS011;46702;48.370;10.794;2023-08-21T07:32:31;8.85;;;7.40;;
60867;SDS011;46702;48.370;10.794;2023-08-21T07:34:57;10.50;;;7.75;;
60867;SDS011;46702;48.370;10.794;2023-08-21T07:37:22;11.38;;;8.82;;
60867;SDS011;46702;48.370;10.794;2023-08-21T07:39:48;10.00;;;9.00;;
60867;SDS011;46702;48.370;10.794;2023-08-21T07:42:14;11.63;;;8.57;;
60867;SDS011;46702;48.370;10.794;2023-08-21T07:44:39;10.35;;;8.45;;
60867;SDS011;46702;48.370;10.794;2023-08-21T07:47:05;12.77;;;9.23;;
60867;SDS011;46702;48.370;10.794;2023-08-21T07:49:31;12.00;;;8.23;;
60867;SDS011;46702;48.370;10.794;2023-08-21T07:51:57;9.93;;;7.72;;
60867;SDS011;46702;48.370;10.794;2023-08-21T07:54:23;10.88;;;7.70;;
60867;SDS011;46702;48.370;10.794;2023-08-21T07:56:49;9.02;;;7.55;;
60867;SDS011;46702;48.370;10.794;2023-08-21T07:59:15;8.95;;;7.28;;
60867;SDS011;46702;48.370;10.794;2023-08-21T08:01:41;10.55;;;7.78;;
60867;SDS011;46702;48.370;10.794;2023-08-21T08:04:07;8.25;;;7.45;;
60867;SDS011;46702;48.370;10.794;2023-08-21T08:06:33;8.40;;;7.25;;
60867;SDS011;46702;48.370;10.794;2023-08-21T08:08:59;7.68;;;6.97;;
60867;SDS011;46702;48.370;10.794;2023-08-21T08:11:24;7.38;;;6.40;;
60867;SDS011;46702;48.370;10.794;2023-08-21T08:13:50;8.20;;;7.40;;
60867;SDS011;46702;48.370;10.794;2023-08-21T08:16:16;8.75;;;6.93;;
60867;SDS011;46702;48.370;10.794;2023-08-21T08:18:42;8.05;;;7.25;;
60867;SDS011;46702;48.370;10.794;2023-08-21T08:21:07;8.65;;;7.55;;
60867;SDS011;46702;48.370;10.794;2023-08-21T08:23:34;7.68;;;6.97;;
60867;SDS011;46702;48.370;10.794;2023-08-21T08:25:59;9.02;;;7.15;;
60867;SDS011;46702;48.370;10.794;2023-08-21T08:28:25;7.72;;;6.97;;
60867;SDS011;46702;48.370;10.794;2023-08-21T08:30:51;9.07;;;6.85;;
60867;SDS011;46702;48.370;10.794;2023-08-21T08:33:16;8.95;;;7.85;;
60867;SDS011;46702;48.370;10.794;2023-08-21T08:35:42;8.95;;;7.53;;
60867;SDS011;46702;48.370;10.794;2023-08-21T08:38:08;10.27;;;7.43;;
60867;SDS011;46702;48.370;10.794;2023-08-21T08:40:34;8.43;;;7.38;;
60867;SDS011;46702;48.370;10.794;2023-08-21T08:43:08;9.57;;;6.88;;
60867;SDS011;46702;48.370;10.794;2023-08-21T08:45:34;7.72;;;6.68;;
60867;SDS011;46702;48.370;10.794;2023-08-21T08:48:01;7.70;;;6.90;;
60867;SDS011;46702;48.370;10.794;2023-08-21T08:50:31;7.78;;;6.97;;
60867;SDS011;46702;48.370;10.794;2023-08-21T08:52:58;9.38;;;6.90;;
60867;SDS011;46702;48.370;10.794;2023-08-21T08:55:24;8.75;;;7.03;;
60867;SDS011;46702;48.370;10.794;2023-08-21T08:57:51;8.02;;;7.22;;
60867;SDS011;46702;48.370;10.794;2023-08-21T09:00:18;7.32;;;6.63;;
60867;SDS011;46702;48.370;10.794;2023-08-21T09:02:45;7.90;;;6.85;;
60867;SDS011;46702;48.370;10.794;2023-08-21T09:05:11;8.13;;;6.97;;
60867;SDS011;46702;48.370;10.794;2023-08-21T09:07:37;8.05;;;7.35;;
60867;SDS011;46702;48.370;10.794;2023-08-21T09:10:03;7.93;;;7.20;;
60867;SDS011;46702;48.370;10.794;2023-08-21T09:12:31;8.52;;;6.75;;
60867;SDS011;46702;48.370;10.794;2023-08-21T09:14:58;7.57;;;6.88;;
60867;SDS011;46702;48.370;10.794;2023-08-21T09:17:24;8.52;;;7.55;;
60867;SDS011;46702;48.370;10.794;2023-08-21T09:19:55;8.00;;;7.22;;
60867;SDS011;46702;48.370;10.794;2023-08-21T09:22:29;7.60;;;6.75;;
60867;SDS011;46702;48.370;10.794;2023-08-21T09:25:02;7.82;;;6.45;;
60867;SDS011;46702;48.370;10.794;2023-08-21T09:27:32;7.93;;;6.40;;
60867;SDS011;46702;48.370;10.794;2023-08-21T09:29:59;7.55;;;6.82;;
60867;SDS011;46702;48.370;10.794;2023-08-21T09:32:27;8.25;;;7.43;;
60867;SDS011;46702;48.370;10.794;2023-08-21T09:34:52;7.85;;;7.05;;
60867;SDS011;46702;48.370;10.794;2023-08-21T09:37:18;8.63;;;7.00;;
60867;SDS011;46702;48.370;10.794;2023-08-21T09:39:44;8.32;;;7.30;;
60867;SDS011;46702;48.370;10.794;2023-08-21T09:42:11;8.80;;;8.00;;
60867;SDS011;46702;48.370;10.794;2023-08-21T09:44:37;7.88;;;7.25;;
60867;SDS011;46702;48.370;10.794;2023-08-21T09:49:32;8.57;;;7.78;;
60867;SDS011;46702;48.370;10.794;2023-08-21T09:51:59;8.07;;;7.27;;
60867;SDS011;46702;48.370;10.794;2023-08-21T09:54:26;10.00;;;7.53;;
60867;SDS011;46702;48.370;10.794;2023-08-21T09:56:53;9.35;;;7.20;;
60867;SDS011;46702;48.370;10.794;2023-08-21T09:59:19;8.20;;;7.40;;
60867;SDS011;46702;48.370;10.794;2023-08-21T10:01:45;7.75;;;6.97;;
60867;SDS011;46702;48.370;10.794;2023-08-21T10:04:16;9.07;;;7.88;;
60867;SDS011;46702;48.370;10.794;2023-08-21T10:06:42;9.50;;;7.25;;
60867;SDS011;46702;48.370;10.794;2023-08-21T10:09:10;8.30;;;7.50;;
60867;SDS011;46702;48.370;10.794;2023-08-21T10:11:36;8.25;;;7.20;;
60867;SDS011;46702;48.370;10.794;2023-08-21T10:14:02;10.13;;;8.10;;
60867;SDS011;46702;48.370;10.794;2023-08-21T10:16:28;8.70;;;7.75;;
60867;SDS011;46702;48.370;10.794;2023-08-21T10:18:54;8.60;;;7.53;;
60867;SDS011;46702;48.370;10.794;2023-08-21T10:21:20;9.02;;;8.07;;
60867;SDS011;46702;48.370;10.794;2023-08-21T10:23:50;8.35;;;7.60;;
60867;SDS011;46702;48.370;10.794;2023-08-21T10:26:19;8.70;;;7.90;;
60867;SDS011;46702;48.370;10.794;2023-08-21T10:28:55;8.75;;;7.93;;
60867;SDS011;46702;48.370;10.794;2023-08-21T10:31:32;8.50;;;7.70;;
60867;SDS011;46702;48.370;10.794;2023-08-21T10:34:01;8.50;;;7.68;;
60867;SDS011;46702;48.370;10.794;2023-08-21T10:41:58;7.97;;;7.18;;
60867;SDS011;46702;48.370;10.794;2023-08-21T10:44:36;9.27;;;8.30;;
60867;SDS011;46702;48.370;10.794;2023-08-21T10:49:53;9.52;;;8.10;;
60867;SDS011;46702;48.370;10.794;2023-08-21T10:52:21;8.68;;;7.72;;
60867;SDS011;46702;48.370;10.794;2023-08-21T10:54:47;7.55;;;6.95;;
60867;SDS011;46702;48.370;10.794;2023-08-21T10:57:18;8.32;;;7.43;;
60867;SDS011;46702;48.370;10.794;2023-08-21T10:59:50;8.45;;;6.90;;
60867;SDS011;46702;48.370;10.794;2023-08-21T11:02:17;8.35;;;7.55;;
60867;SDS011;46702;48.370;10.794;2023-08-21T11:04:43;8.32;;;7.55;;
60867;SDS011;46702;48.370;10.794;2023-08-21T11:07:09;9.13;;;7.30;;
60867;SDS011;46702;48.370;10.794;2023-08-21T11:09:35;9.48;;;7.40;;
60867;SDS011;46702;48.370;10.794;2023-08-21T11:12:05;9.30;;;6.90;;
60867;SDS011;46702;48.370;10.794;2023-08-21T11:14:35;7.57;;;6.88;;
60867;SDS011;46702;48.370;10.794;2023-08-21T11:17:02;7.15;;;6.45;;
60867;SDS011;46702;48.370;10.794;2023-08-21T11:19:29;7.10;;;6.40;;
60867;SDS011;46702;48.370;10.794;2023-08-21T11:21:56;7.30;;;6.70;;
60867;SDS011;46702;48.370;10.794;2023-08-21T11:24:21;9.45;;;6.22;;
60867;SDS011;46702;48.370;10.794;2023-08-21T11:26:47;8.30;;;6.05;;
60867;SDS011;46702;48.370;10.794;2023-08-21T11:29:13;7.05;;;6.10;;
60867;SDS011;46702;48.370;10.794;2023-08-21T11:31:39;6.97;;;6.22;;
60867;SDS011;46702;48.370;10.794;2023-08-21T11:34:05;7.93;;;6.68;;
60867;SDS011;46702;48.370;10.794;2023-08-21T11:36:31;8.27;;;7.10;;
60867;SDS011;46702;48.370;10.794;2023-08-21T11:38:57;7.65;;;6.85;;
60867;SDS011;46702;48.370;10.794;2023-08-21T11:41:25;6.93;;;6.25;;
60867;SDS011;46702;48.370;10.794;2023-08-21T11:43:50;7.55;;;6.53;;
60867;SDS011;46702;48.370;10.794;2023-08-21T11:46:16;9.07;;;6.97;;
60867;SDS011;46702;48.370;10.794;2023-08-21T11:48:43;8.07;;;6.75;;
60867;SDS011;46702;48.370;10.794;2023-08-21T11:51:10;7.18;;;6.43;;
60867;SDS011;46702;48.370;10.794;2023-08-21T11:53:37;7.43;;;6.72;;
60867;SDS011;46702;48.370;10.794;2023-08-21T11:56:08;7.20;;;6.50;;
60867;SDS011;46702;48.370;10.794;2023-08-21T11:58:39;6.85;;;6.28;;
60867;SDS011;46702;48.370;10.794;2023-08-21T12:01:06;7.88;;;6.18;;
60867;SDS011;46702;48.370;10.794;2023-08-21T12:03:40;6.80;;;6.18;;
60867;SDS011;46702;48.370;10.794;2023-08-21T12:06:07;6.88;;;6.20;;
60867;SDS011;46702;48.370;10.794;2023-08-21T12:10:59;10.50;;;6.38;;
60867;SDS011;46702;48.370;10.794;2023-08-21T12:13:25;7.28;;;6.03;;
60867;SDS011;46702;48.370;10.794;2023-08-21T12:15:50;7.13;;;6.30;;
60867;SDS011;46702;48.370;10.794;2023-08-21T12:18:16;7.00;;;6.30;;
60867;SDS011;46702;48.370;10.794;2023-08-21T12:20:41;6.68;;;5.97;;
60867;SDS011;46702;48.370;10.794;2023-08-21T12:23:07;7.32;;;6.40;;
60867;SDS011;46702;48.370;10.794;2023-08-21T12:25:32;7.10;;;6.15;;
60867;SDS011;46702;48.370;10.794;2023-08-21T12:27:58;9.50;;;6.00;;
60867;SDS011;46702;48.370;10.794;2023-08-21T12:30:24;8.80;;;6.65;;
60867;SDS011;46702;48.370;10.794;2023-08-21T12:32:50;7.78;;;6.07;;
60867;SDS011;46702;48.370;10.794;2023-08-21T12:35:16;8.82;;;6.40;;
60867;SDS011;46702;48.370;10.794;2023-08-21T12:37:41;6.70;;;6.00;;
60867;SDS011;46702;48.370;10.794;2023-08-21T12:40:07;7.00;;;6.25;;
60867;SDS011;46702;48.370;10.794;2023-08-21T12:42:33;7.17;;;6.33;;
60867;SDS011;46702;48.370;10.794;2023-08-21T12:44:59;7.55;;;6.22;;
60867;SDS011;46702;48.370;10.794;2023-08-21T12:47:25;6.90;;;6.05;;
60867;SDS011;46702;48.370;10.794;2023-08-21T12:49:50;6.85;;;6.03;;
60867;SDS011;46702;48.370;10.794;2023-08-21T12:52:16;6.38;;;5.78;;
60867;SDS011;46702;48.370;10.794;2023-08-21T12:54:41;7.53;;;6.25;;
60867;SDS011;46702;48.370;10.794;2023-08-21T12:57:08;7.07;;;6.03;;
60867;SDS011;46702;48.370;10.794;2023-08-21T12:59:34;9.85;;;6.45;;
60867;SDS011;46702;48.370;10.794;2023-08-21T13:01:59;9.10;;;5.90;;
60867;SDS011;46702;48.370;10.794;2023-08-21T13:04:26;6.68;;;5.82;;
60867;SDS011;46702;48.370;10.794;2023-08-21T13:06:52;7.15;;;6.07;;
60867;SDS011;46702;48.370;10.794;2023-08-21T13:09:17;6.68;;;5.93;;
60867;SDS011;46702;48.370;10.794;2023-08-21T13:11:43;7.07;;;6.38;;
60867;SDS011;46702;48.370;10.794;2023-08-21T13:14:08;6.38;;;5.78;;
60867;SDS011;46702;48.370;10.794;2023-08-21T13:16:34;7.07;;;6.47;;
60867;SDS011;46702;48.370;10.794;2023-08-21T13:18:59;7.72;;;6.18;;
60867;SDS011;46702;48.370;10.794;2023-08-21T13:21:25;7.30;;;6.60;;
60867;SDS011;46702;48.370;10.794;2023-08-21T13:23:51;7.30;;;6.57;;
60867;SDS011;46702;48.370;10.794;2023-08-21T13:26:16;6.82;;;6.10;;
60867;SDS011;46702;48.370;10.794;2023-08-21T13:28:42;7.55;;;5.90;;
60867;SDS011;46702;48.370;10.794;2023-08-21T13:31:07;6.95;;;6.10;;
60867;SDS011;46702;48.370;10.794;2023-08-21T13:33:43;8.68;;;6.32;;
60867;SDS011;46702;48.370;10.794;2023-08-21T13:36:12;6.82;;;6.00;;
60867;SDS011;46702;48.370;10.794;2023-08-21T13:38:39;7.05;;;6.10;;
60867;SDS011;46702;48.370;10.794;2023-08-21T13:41:05;7.32;;;6.30;;
60867;SDS011;46702;48.370;10.794;2023-08-21T13:43:31;6.80;;;6.10;;
60867;SDS011;46702;48.370;10.794;2023-08-21T13:45:57;7.82;;;5.60;;
60867;SDS011;46702;48.370;10.794;2023-08-21T13:48:23;8.75;;;6.25;;
60867;SDS011;46702;48.370;10.794;2023-08-21T13:50:48;6.40;;;5.80;;
60867;SDS011;46702;48.370;10.794;2023-08-21T13:53:14;6.90;;;5.95;;
60867;SDS011;46702;48.370;10.794;2023-08-21T13:55:39;7.13;;;5.30;;
60867;SDS011;46702;48.370;10.794;2023-08-21T13:58:05;5.55;;;4.80;;
60867;SDS011;46702;48.370;10.794;2023-08-21T14:00:30;6.72;;;5.25;;
60867;SDS011;46702;48.370;10.794;2023-08-21T14:02:56;8.35;;;5.38;;
60867;SDS011;46702;48.370;10.794;2023-08-21T14:05:22;5.57;;;5.07;;
60867;SDS011;46702;48.370;10.794;2023-08-21T14:07:47;6.05;;;5.45;;
60867;SDS011;46702;48.370;10.794;2023-08-21T14:10:14;5.63;;;4.90;;
60867;SDS011;46702;48.370;10.794;2023-08-21T14:12:39;5.93;;;4.90;;
60867;SDS011;46702;48.370;10.794;2023-08-21T14:15:05;5.30;;;4.80;;
60867;SDS011;46702;48.370;10.794;2023-08-21T14:17:31;5.43;;;4.93;;
60867;SDS011;46702;48.370;10.794;2023-08-21T14:19:57;6.22;;;4.53;;
60867;SDS011;46702;48.370;10.794;2023-08-21T14:22:22;4.90;;;3.55;;
60867;SDS011;46702;48.370;10.794;2023-08-21T14:24:48;6.45;;;4.40;;
60867;SDS011;46702;48.370;10.794;2023-08-21T14:27:14;6.68;;;4.20;;
60867;SDS011;46702;48.370;10.794;2023-08-21T14:29:41;7.30;;;4.13;;
60867;SDS011;46702;48.370;10.794;2023-08-21T14:32:07;7.82;;;4.28;;
60867;SDS011;46702;48.370;10.794;2023-08-21T14:34:33;9.10;;;4.65;;
60867;SDS011;46702;48.370;10.794;2023-08-21T14:36:59;6.15;;;4.30;;
60867;SDS011;46702;48.370;10.794;2023-08-21T14:39:24;6.22;;;4.43;;
60867;SDS011;46702;48.370;10.794;2023-08-21T14:41:57;6.00;;;4.30;;
60867;SDS011;46702;48.370;10.794;2023-08-21T14:44:23;6.97;;;4.43;;
60867;SDS011;46702;48.370;10.794;2023-08-21T14:46:49;12.98;;;5.25;;